createdAt,value
2017-08-24T00:02:23.751Z,101599.38
2017-08-24T00:04:52.226Z,101604.25
2017-08-24T00:07:20.711Z,101605.61
2017-08-24T00:09:49.189Z,101604.00
2017-08-24T00:12:17.674Z,101609.28
2017-08-24T00:14:46.248Z,101603.48
2017-08-24T00:17:14.682Z,101596.20
2017-08-24T00:19:43.108Z,101596.84
2017-08-24T00:22:11.548Z,101595.41
2017-08-24T00:24:40.084Z,101588.55
2017-08-24T00:27:08.566Z,101589.25
2017-08-24T00:29:37.040Z,101579.07
2017-08-24T00:32:05.530Z,101581.55
2017-08-24T00:34:34.010Z,101579.17
2017-08-24T00:37:02.494Z,101571.77
2017-08-24T00:39:30.933Z,101574.43
2017-08-24T00:41:59.451Z,101568.64
2017-08-24T00:44:27.938Z,101569.55
2017-08-24T00:46:57.232Z,101572.53
2017-08-24T00:49:25.655Z,101571.72
2017-08-24T00:51:54.113Z,101572.53
2017-08-24T00:54:22.586Z,101566.59
2017-08-24T00:56:51.067Z,101568.16
2017-08-24T00:59:19.505Z,101570.80
2017-08-24T01:01:48.031Z,101565.79
2017-08-24T01:04:16.513Z,101573.49
2017-08-24T01:06:44.988Z,101573.92
2017-08-24T01:09:13.429Z,101567.13
2017-08-24T01:11:41.959Z,101569.00
2017-08-24T01:14:10.411Z,101574.11
2017-08-24T01:16:38.922Z,101578.39
2017-08-24T01:19:07.361Z,101576.17
2017-08-24T01:21:35.778Z,101570.67
2017-08-24T01:24:04.224Z,101564.50
2017-08-24T01:26:32.643Z,101555.93
2017-08-24T01:29:01.085Z,101560.58
2017-08-24T01:31:29.595Z,101553.34
2017-08-24T01:33:58.040Z,101538.07
2017-08-24T01:36:26.555Z,101542.52
2017-08-24T01:38:55.055Z,101544.23
2017-08-24T01:41:23.527Z,101540.80
2017-08-24T01:43:52.016Z,101536.92
2017-08-24T01:46:24.397Z,101541.56
2017-08-24T01:48:52.856Z,101541.22
2017-08-24T01:51:21.294Z,101540.45
2017-08-24T01:53:49.739Z,101533.09
2017-08-24T01:56:18.155Z,101527.63
2017-08-24T01:58:46.601Z,101532.45
2017-08-24T02:01:15.072Z,101532.41
2017-08-24T02:03:43.542Z,101533.17
2017-08-24T02:06:11.976Z,101526.80
2017-08-24T02:08:40.433Z,101528.09
2017-08-24T02:11:08.898Z,101522.46
2017-08-24T02:13:37.370Z,101524.31
2017-08-24T02:16:05.865Z,101520.95
2017-08-24T02:18:34.357Z,101508.86
2017-08-24T02:21:02.829Z,101507.95
2017-08-24T02:23:31.314Z,101510.45
2017-08-24T02:25:59.782Z,101517.80
2017-08-24T02:28:28.263Z,101508.77
2017-08-24T02:30:56.725Z,101505.36
2017-08-24T02:33:25.231Z,101503.22
2017-08-24T02:35:53.725Z,101492.88
2017-08-24T02:38:22.196Z,101495.55
2017-08-24T02:40:50.635Z,101494.39
2017-08-24T02:43:19.169Z,101484.48
2017-08-24T02:45:47.634Z,101482.25
2017-08-24T02:48:16.128Z,101483.03
2017-08-24T02:50:44.599Z,101478.38
2017-08-24T02:53:13.089Z,101471.92
2017-08-24T02:55:41.531Z,101474.17
2017-08-24T02:58:09.955Z,101466.03
2017-08-24T03:00:38.448Z,101467.45
2017-08-24T03:03:06.916Z,101463.16
2017-08-24T03:05:35.369Z,101470.94
2017-08-24T03:08:04.605Z,101465.44
2017-08-24T03:10:33.073Z,101460.31
2017-08-24T03:13:01.570Z,101461.17
2017-08-24T03:15:30.027Z,101456.09
2017-08-24T03:17:58.522Z,101452.69
2017-08-24T03:20:26.964Z,101456.48
2017-08-24T03:22:55.488Z,101460.73
2017-08-24T03:25:23.968Z,101464.10
2017-08-24T03:27:52.462Z,101465.86
2017-08-24T03:30:20.926Z,101463.70
2017-08-24T03:32:49.416Z,101461.17
2017-08-24T03:35:17.877Z,101462.85
2017-08-24T03:37:46.380Z,101459.02
2017-08-24T03:40:14.879Z,101465.86
2017-08-24T03:42:43.337Z,101456.95
2017-08-24T03:45:11.768Z,101456.44
2017-08-24T03:47:40.224Z,101454.84
2017-08-24T03:50:08.679Z,101447.48
2017-08-24T03:52:37.119Z,101446.31
2017-08-24T03:55:05.553Z,101434.78
2017-08-24T03:57:34.032Z,101440.02
2017-08-24T04:00:02.522Z,101437.02
2017-08-24T04:02:30.996Z,101437.76
2017-08-24T04:04:59.429Z,101436.42
2017-08-24T04:07:27.884Z,101436.03
2017-08-24T04:09:56.354Z,101429.58
2017-08-24T04:12:24.795Z,101431.34
2017-08-24T04:14:53.291Z,101430.09
2017-08-24T04:17:21.785Z,101430.09
2017-08-24T04:19:50.215Z,101424.50
2017-08-24T04:22:18.647Z,101425.05
2017-08-24T04:24:47.138Z,101424.89
2017-08-24T04:27:15.583Z,101427.39
2017-08-24T04:29:44.104Z,101439.34
2017-08-24T04:32:12.539Z,101440.64
2017-08-24T04:34:40.960Z,101435.48
2017-08-24T04:37:09.432Z,101438.92
2017-08-24T04:39:37.915Z,101442.71
2017-08-24T04:42:06.395Z,101441.26
2017-08-24T04:44:34.833Z,101441.59
2017-08-24T04:47:03.304Z,101433.84
2017-08-24T04:49:31.731Z,101429.64
2017-08-24T04:52:00.224Z,101428.94
2017-08-24T04:54:29.537Z,101428.11
2017-08-24T04:56:57.963Z,101435.30
2017-08-24T04:59:26.422Z,101431.75
2017-08-24T05:01:54.877Z,101426.05
2017-08-24T05:04:23.356Z,101421.22
2017-08-24T05:06:51.780Z,101416.66
2017-08-24T05:09:20.306Z,101416.23
2017-08-24T05:11:48.809Z,101413.98
2017-08-24T05:14:17.296Z,101411.78
2017-08-24T05:16:45.764Z,101414.94
2017-08-24T05:19:14.255Z,101419.46
2017-08-24T05:21:42.738Z,101420.09
2017-08-24T05:24:11.183Z,101417.66
2017-08-24T05:26:39.700Z,101420.05
2017-08-24T05:29:08.182Z,101408.66
2017-08-24T05:31:36.599Z,101417.59
2017-08-24T05:34:05.044Z,101419.06
2017-08-24T05:39:08.010Z,101427.12
2017-08-24T05:41:36.530Z,101421.75
2017-08-24T05:44:04.997Z,101414.27
2017-08-24T05:46:33.414Z,101415.43
2017-08-24T05:49:01.972Z,101410.59
2017-08-24T05:51:30.409Z,101415.24
2017-08-24T05:53:58.936Z,101410.49
2017-08-24T05:56:27.430Z,101406.09
2017-08-24T05:58:55.896Z,101398.15
2017-08-24T06:01:24.338Z,101392.34
2017-08-24T06:03:52.874Z,101394.86
2017-08-24T06:06:21.333Z,101399.51
2017-08-24T06:08:49.834Z,101398.32
2017-08-24T06:11:18.317Z,101398.28
2017-08-24T06:13:46.803Z,101399.88
2017-08-24T06:16:15.256Z,101393.00
2017-08-24T06:18:43.743Z,101390.22
2017-08-24T06:21:12.205Z,101386.76
2017-08-24T06:23:41.399Z,101391.93
2017-08-24T06:26:09.916Z,101392.22
2017-08-24T06:28:38.395Z,101387.28
2017-08-24T06:31:06.843Z,101386.19
2017-08-24T06:33:35.359Z,101384.50
2017-08-24T06:36:03.948Z,101381.63
2017-08-24T06:38:32.428Z,101378.27
2017-08-24T06:41:00.902Z,101374.16
2017-08-24T06:43:29.342Z,101382.58
2017-08-24T06:45:57.886Z,101379.96
2017-08-24T06:48:26.326Z,101371.23
2017-08-24T06:50:54.817Z,101374.01
2017-08-24T06:53:23.263Z,101380.45
2017-08-24T06:55:51.812Z,101383.84
2017-08-24T06:58:20.269Z,101389.03
2017-08-24T07:00:48.764Z,101400.63
2017-08-24T07:03:17.253Z,101394.39
2017-08-24T07:05:45.725Z,101398.37
2017-08-24T07:08:14.244Z,101393.71
2017-08-24T07:10:42.797Z,101391.71
2017-08-24T07:13:11.253Z,101389.50
2017-08-24T07:15:39.760Z,101390.89
2017-08-24T07:18:08.211Z,101395.63
2017-08-24T07:20:36.734Z,101392.08
2017-08-24T07:23:05.198Z,101394.13
2017-08-24T07:25:33.698Z,101396.80
2017-08-24T07:28:02.182Z,101402.05
2017-08-24T07:30:30.613Z,101398.86
2017-08-24T07:32:59.140Z,101396.09
2017-08-24T07:35:27.611Z,101391.71
2017-08-24T07:37:56.113Z,101401.84
2017-08-24T07:40:24.579Z,101392.95
2017-08-24T07:42:53.137Z,101391.55
2017-08-24T07:45:21.660Z,101391.61
2017-08-24T07:47:50.127Z,101399.41
2017-08-24T07:50:18.622Z,101400.44
2017-08-24T07:52:47.066Z,101388.41
2017-08-24T07:55:15.575Z,101388.84
2017-08-24T07:57:44.051Z,101388.67
2017-08-24T08:00:12.541Z,101382.03
2017-08-24T08:02:40.958Z,101390.38
2017-08-24T08:05:09.409Z,101381.38
2017-08-24T08:07:37.884Z,101378.45
2017-08-24T08:10:06.336Z,101382.19
2017-08-24T08:12:34.857Z,101367.55
2017-08-24T08:15:03.343Z,101366.64
2017-08-24T08:17:31.812Z,101361.82
2017-08-24T08:20:00.292Z,101366.73
2017-08-24T08:22:28.734Z,101362.59
2017-08-24T08:24:57.180Z,101359.09
2017-08-24T08:27:25.608Z,101356.78
2017-08-24T08:29:54.124Z,101354.45
2017-08-24T08:32:22.575Z,101360.25
2017-08-24T08:34:51.093Z,101350.06
2017-08-24T08:37:19.550Z,101346.23
2017-08-24T08:39:47.986Z,101349.33
2017-08-24T08:42:16.419Z,101348.79
2017-08-24T08:44:44.983Z,101336.80
2017-08-24T08:47:13.412Z,101334.81
2017-08-24T08:49:41.853Z,101336.48
2017-08-24T08:52:10.354Z,101337.55
2017-08-24T08:54:38.847Z,101333.73
2017-08-24T08:57:07.315Z,101325.01
2017-08-24T08:59:35.826Z,101322.63
2017-08-24T09:02:04.375Z,101323.16
2017-08-24T09:04:32.864Z,101319.78
2017-08-24T09:07:01.348Z,101319.97
2017-08-24T09:09:29.823Z,101316.17
2017-08-24T09:11:58.312Z,101313.20
2017-08-24T09:14:26.737Z,101319.02
2017-08-24T09:16:55.267Z,101327.19
2017-08-24T09:19:23.760Z,101319.59
2017-08-24T09:21:52.240Z,101322.55
2017-08-24T09:24:20.719Z,101317.22
2017-08-24T09:26:49.214Z,101323.42
2017-08-24T09:29:17.677Z,101320.34
2017-08-24T09:31:46.098Z,101314.25
2017-08-24T09:34:14.552Z,101313.50
2017-08-24T09:36:43.335Z,101302.06
2017-08-24T09:39:11.823Z,101298.71
2017-08-24T09:41:40.261Z,101307.42
2017-08-24T09:44:08.722Z,101293.86
2017-08-24T09:46:37.160Z,101290.01
2017-08-24T09:49:05.654Z,101290.20
2017-08-24T09:51:34.128Z,101285.48
2017-08-24T09:54:02.602Z,101272.13
2017-08-24T09:56:31.036Z,101258.95
2017-08-24T09:58:59.582Z,101259.02
2017-08-24T10:01:28.056Z,101262.78
2017-08-24T10:03:56.540Z,101259.37
2017-08-24T10:06:25.024Z,101254.83
2017-08-24T10:08:53.461Z,101253.83
2017-08-24T10:11:21.913Z,101261.48
2017-08-24T10:13:50.327Z,101252.89
2017-08-24T10:16:18.770Z,101251.77
2017-08-24T10:18:49.742Z,101251.80
2017-08-24T10:21:18.268Z,101251.98
2017-08-24T10:23:46.692Z,101257.34
2017-08-24T10:26:15.144Z,101257.52
2017-08-24T10:28:43.674Z,101256.19
2017-08-24T10:31:12.213Z,101243.69
2017-08-24T10:33:40.643Z,101242.89
2017-08-24T10:36:09.197Z,101239.28
2017-08-24T10:38:37.649Z,101241.41
2017-08-24T10:41:06.240Z,101235.26
2017-08-24T10:43:34.719Z,101239.21
2017-08-24T10:46:03.199Z,101239.06
2017-08-24T10:48:31.632Z,101240.39
2017-08-24T10:51:00.162Z,101232.33
2017-08-24T10:53:28.636Z,101239.34
2017-08-24T10:55:57.116Z,101234.56
2017-08-24T10:58:25.606Z,101229.09
2017-08-24T11:00:54.059Z,101231.26
2017-08-24T11:03:22.556Z,101218.10
2017-08-24T11:05:51.004Z,101217.46
2017-08-24T11:08:19.450Z,101220.22
2017-08-24T11:10:47.938Z,101231.55
2017-08-24T11:13:16.366Z,101217.81
2017-08-24T11:15:44.873Z,101225.53
2017-08-24T11:18:13.424Z,101223.04
2017-08-24T11:20:41.945Z,101231.53
2017-08-24T11:23:10.430Z,101235.28
2017-08-24T11:25:38.910Z,101230.02
2017-08-24T11:28:07.384Z,101234.63
2017-08-24T11:30:35.875Z,101230.02
2017-08-24T11:33:04.397Z,101236.72
2017-08-24T11:35:32.839Z,101238.81
2017-08-24T11:38:01.322Z,101236.86
2017-08-24T11:40:29.787Z,101244.83
2017-08-24T11:42:58.267Z,101246.22
2017-08-24T11:45:26.729Z,101257.88
2017-08-24T11:47:55.240Z,101260.22
2017-08-24T11:50:23.731Z,101259.56
2017-08-24T11:52:52.165Z,101257.11
2017-08-24T11:55:20.625Z,101250.95
2017-08-24T11:57:49.064Z,101253.08
2017-08-24T12:00:17.563Z,101257.40
2017-08-24T12:02:46.023Z,101263.97
2017-08-24T12:05:14.512Z,101252.84
2017-08-24T12:07:42.991Z,101261.00
2017-08-24T12:10:11.440Z,101255.14
2017-08-24T12:12:39.877Z,101248.52
2017-08-24T12:15:08.333Z,101246.83
2017-08-24T12:17:36.759Z,101247.55
2017-08-24T12:20:05.212Z,101250.90
2017-08-24T12:22:33.639Z,101249.34
2017-08-24T12:25:02.160Z,101257.70
2017-08-24T12:27:30.655Z,101258.55
2017-08-24T12:29:59.135Z,101262.09
2017-08-24T12:32:27.599Z,101261.91
2017-08-24T12:34:56.099Z,101255.84
2017-08-24T12:37:24.556Z,101263.05
2017-08-24T12:39:52.993Z,101260.31
2017-08-24T12:42:21.526Z,101261.39
2017-08-24T12:44:50.022Z,101253.13
2017-08-24T12:47:18.487Z,101256.63
2017-08-24T12:49:46.980Z,101264.04
2017-08-24T12:52:15.465Z,101265.48
2017-08-24T12:54:43.897Z,101268.23
2017-08-24T12:57:12.358Z,101259.94
2017-08-24T12:59:40.818Z,101263.07
2017-08-24T13:02:09.305Z,101266.84
2017-08-24T13:04:37.745Z,101270.79
2017-08-24T13:07:06.252Z,101264.89
2017-08-24T13:09:34.746Z,101265.23
2017-08-24T13:12:03.216Z,101264.52
2017-08-24T13:14:31.701Z,101262.02
2017-08-24T13:17:00.174Z,101255.77
2017-08-24T13:19:28.669Z,101247.92
2017-08-24T13:21:57.350Z,101235.91
2017-08-24T13:24:25.827Z,101231.68
2017-08-24T13:26:54.637Z,101228.34
2017-08-24T13:29:23.104Z,101226.66
2017-08-24T13:31:51.578Z,101224.00
2017-08-24T13:34:20.018Z,101215.91
2017-08-24T13:36:48.449Z,101218.40
2017-08-24T13:39:16.928Z,101219.26
2017-08-24T13:41:45.347Z,101206.00
2017-08-24T13:44:13.932Z,101209.17
2017-08-24T13:46:42.360Z,101209.53
2017-08-24T13:49:11.274Z,101206.09
2017-08-24T13:51:39.752Z,101210.02
2017-08-24T13:54:08.196Z,101211.60
2017-08-24T13:56:36.703Z,101218.53
2017-08-24T13:59:05.148Z,101215.98
2017-08-24T14:01:33.682Z,101212.36
2017-08-24T14:04:02.166Z,101202.17
2017-08-24T14:06:30.630Z,101208.30
2017-08-24T14:08:59.113Z,101211.36
2017-08-24T14:11:27.536Z,101211.27
2017-08-24T14:13:55.973Z,101212.55
2017-08-24T14:16:24.474Z,101215.09
2017-08-24T14:18:53.047Z,101219.52
2017-08-24T14:21:21.528Z,101218.86
2017-08-24T14:23:50.001Z,101219.61
2017-08-24T14:26:18.506Z,101215.09
2017-08-24T14:28:46.990Z,101221.70
2017-08-24T14:31:15.434Z,101222.06
2017-08-24T14:33:43.877Z,101214.88
2017-08-24T14:36:12.336Z,101216.02
2017-08-24T14:38:40.818Z,101210.13
2017-08-24T14:41:09.302Z,101213.48
2017-08-24T14:43:37.758Z,101214.61
2017-08-24T14:46:06.195Z,101225.37
2017-08-24T14:48:34.629Z,101219.37
2017-08-24T14:51:03.122Z,101228.38
2017-08-24T14:53:31.547Z,101236.47
2017-08-24T14:56:00.076Z,101238.38
2017-08-24T14:58:28.548Z,101239.70
2017-08-24T15:00:57.047Z,101247.91
2017-08-24T15:03:25.513Z,101243.77
2017-08-24T15:05:54.019Z,101249.89
2017-08-24T15:08:22.541Z,101249.04
2017-08-24T15:10:51.079Z,101249.77
2017-08-24T15:13:19.756Z,101251.70
2017-08-24T15:15:48.226Z,101249.20
2017-08-24T15:18:16.733Z,101249.97
2017-08-24T15:20:45.214Z,101255.94
2017-08-24T15:23:13.693Z,101259.19
2017-08-24T15:25:42.124Z,101264.98
2017-08-24T15:28:10.666Z,101271.00
2017-08-24T15:30:39.127Z,101268.23
2017-08-24T15:33:07.578Z,101274.36
2017-08-24T15:35:36.018Z,101277.98
2017-08-24T15:38:04.588Z,101275.95
2017-08-24T15:40:33.018Z,101282.70
2017-08-24T15:43:01.548Z,101279.66
2017-08-24T15:45:30.030Z,101280.33
2017-08-24T15:47:58.510Z,101282.69
2017-08-24T15:50:26.988Z,101279.48
2017-08-24T15:52:55.482Z,101273.47
2017-08-24T15:55:23.924Z,101282.03
2017-08-24T15:57:52.427Z,101284.24
2017-08-24T16:00:20.927Z,101277.38
2017-08-24T16:02:49.410Z,101275.17
2017-08-24T16:05:17.890Z,101273.86
2017-08-24T16:07:46.461Z,101268.88
2017-08-24T16:10:14.944Z,101274.95
2017-08-24T16:12:43.439Z,101272.05
2017-08-24T16:15:11.921Z,101271.77
2017-08-24T16:17:40.402Z,101267.85
2017-08-24T16:20:08.838Z,101258.59
2017-08-24T16:22:37.361Z,101262.80
2017-08-24T16:25:05.845Z,101262.92
2017-08-24T16:27:34.289Z,101261.31
2017-08-24T16:30:02.804Z,101265.98
2017-08-24T16:32:32.011Z,101267.87
2017-08-24T16:35:00.490Z,101268.76
2017-08-24T16:37:28.937Z,101271.60
2017-08-24T16:39:57.458Z,101274.75
2017-08-24T16:42:25.896Z,101267.02
2017-08-24T16:44:54.422Z,101268.00
2017-08-24T16:47:22.851Z,101270.87
2017-08-24T16:49:51.378Z,101278.36
2017-08-24T16:52:19.852Z,101279.98
2017-08-24T16:54:48.349Z,101272.88
2017-08-24T16:57:16.831Z,101277.47
2017-08-24T16:59:45.292Z,101282.73
2017-08-24T17:02:13.786Z,101282.98
2017-08-24T17:04:42.280Z,101288.94
2017-08-24T17:07:10.745Z,101284.42
2017-08-24T17:09:39.232Z,101283.95
2017-08-24T17:12:07.699Z,101279.69
2017-08-24T17:14:36.233Z,101283.88
2017-08-24T17:17:04.767Z,101285.09
2017-08-24T17:19:33.201Z,101280.53
2017-08-24T17:22:01.735Z,101277.20
2017-08-24T17:24:30.220Z,101283.30
2017-08-24T17:26:58.708Z,101289.14
2017-08-24T17:29:27.152Z,101288.41
2017-08-24T17:31:55.672Z,101291.69
2017-08-24T17:34:24.152Z,101290.23
2017-08-24T17:36:52.613Z,101293.00
2017-08-24T17:39:21.112Z,101291.08
2017-08-24T17:41:49.563Z,101289.95
2017-08-24T17:44:18.076Z,101296.33
2017-08-24T17:46:46.541Z,101293.58
2017-08-24T17:49:15.050Z,101297.78
2017-08-24T17:51:43.639Z,101292.91
2017-08-24T17:54:12.071Z,101289.69
2017-08-24T17:56:40.537Z,101292.45
2017-08-24T17:59:09.068Z,101296.27
2017-08-24T18:01:37.542Z,101304.44
2017-08-24T18:04:06.031Z,101300.31
2017-08-24T18:06:34.516Z,101301.49
2017-08-24T18:09:02.982Z,101303.98
2017-08-24T18:11:32.176Z,101309.63
2017-08-24T18:14:00.667Z,101309.28
2017-08-24T18:16:29.163Z,101305.60
2017-08-24T18:18:57.615Z,101319.08
2017-08-24T18:21:26.139Z,101320.56
2017-08-24T18:23:54.604Z,101320.21
2017-08-24T18:26:23.091Z,101318.36
2017-08-24T18:28:51.549Z,101323.95
2017-08-24T18:31:20.052Z,101327.64
2017-08-24T18:33:48.505Z,101320.23
2017-08-24T18:36:17.025Z,101332.38
2017-08-24T18:38:45.496Z,101333.97
2017-08-24T18:41:13.929Z,101330.70
2017-08-24T18:43:42.385Z,101343.67
2017-08-24T18:46:10.825Z,101335.59
2017-08-24T18:48:39.254Z,101338.58
2017-08-24T18:51:07.708Z,101339.11
2017-08-24T18:53:36.165Z,101337.89
2017-08-24T18:56:04.681Z,101336.92
2017-08-24T18:58:33.147Z,101341.16
2017-08-24T19:01:01.630Z,101346.43
2017-08-24T19:03:30.127Z,101351.83
2017-08-24T19:05:58.660Z,101351.24
2017-08-24T19:08:27.106Z,101355.80
2017-08-24T19:10:55.684Z,101352.06
2017-08-24T19:13:24.111Z,101352.38
2017-08-24T19:15:52.704Z,101358.70
2017-08-24T19:18:21.148Z,101358.04
2017-08-24T19:20:49.604Z,101369.59
2017-08-24T19:23:18.076Z,101367.29
2017-08-24T19:25:46.556Z,101370.52
2017-08-24T19:28:15.048Z,101375.20
2017-08-24T19:30:43.519Z,101374.16
2017-08-24T19:33:11.994Z,101375.48
2017-08-24T19:35:40.494Z,101374.39
2017-08-24T19:38:08.920Z,101371.05
2017-08-24T19:40:37.386Z,101370.34
2017-08-24T19:43:05.939Z,101374.58
2017-08-24T19:45:34.416Z,101377.69
2017-08-24T19:48:02.887Z,101387.23
2017-08-24T19:50:31.337Z,101385.31
2017-08-24T19:52:59.793Z,101380.99
2017-08-24T19:55:28.330Z,101382.87
2017-08-24T19:57:57.636Z,101388.38
2017-08-24T20:00:26.117Z,101392.50
2017-08-24T20:02:54.585Z,101386.39
2017-08-24T20:05:23.075Z,101390.58
2017-08-24T20:07:51.542Z,101395.64
2017-08-24T20:10:20.764Z,101398.61
2017-08-24T20:12:49.247Z,101397.28
2017-08-24T20:15:17.666Z,101398.88
2017-08-24T20:17:46.134Z,101396.34
2017-08-24T20:20:14.592Z,101394.70
2017-08-24T20:22:43.085Z,101402.34
2017-08-24T20:25:11.566Z,101403.84
2017-08-24T20:27:40.032Z,101408.95
2017-08-24T20:30:08.516Z,101406.64
2017-08-24T20:32:37.014Z,101408.97
2017-08-24T20:35:05.491Z,101410.92
2017-08-24T20:37:33.940Z,101417.80
2017-08-24T20:40:02.392Z,101418.67
2017-08-24T20:42:30.923Z,101425.19
2017-08-24T20:44:59.412Z,101418.69
2017-08-24T20:47:27.906Z,101427.59
2017-08-24T20:49:56.363Z,101428.47
2017-08-24T20:52:24.856Z,101426.42
2017-08-24T20:54:53.336Z,101424.88
2017-08-24T20:57:21.922Z,101420.98
2017-08-24T20:59:50.385Z,101420.37
2017-08-24T21:02:19.598Z,101424.95
2017-08-24T21:04:48.102Z,101427.30
2017-08-24T21:07:16.568Z,101431.30
2017-08-24T21:09:45.060Z,101430.17
2017-08-24T21:12:14.332Z,101440.70
2017-08-24T21:14:42.790Z,101438.62
2017-08-24T21:17:11.311Z,101441.73
2017-08-24T21:19:39.778Z,101448.21
2017-08-24T21:22:08.694Z,101444.16
2017-08-24T21:24:37.182Z,101448.19
2017-08-24T21:27:05.655Z,101447.23
2017-08-24T21:29:34.122Z,101443.98
2017-08-24T21:32:02.538Z,101443.50
2017-08-24T21:34:31.092Z,101445.58
2017-08-24T21:36:59.520Z,101447.74
2017-08-24T21:39:28.057Z,101446.33
2017-08-24T21:41:56.493Z,101450.14
2017-08-24T21:44:25.037Z,101446.17
2017-08-24T21:46:53.504Z,101450.14
2017-08-24T21:49:21.996Z,101454.54
2017-08-24T21:51:50.443Z,101453.39
2017-08-24T21:54:18.943Z,101454.59
2017-08-24T21:56:47.436Z,101459.66
2017-08-24T21:59:15.915Z,101454.01
2017-08-24T22:01:44.395Z,101458.96
2017-08-24T22:04:12.881Z,101459.50
2017-08-24T22:06:41.308Z,101458.50
2017-08-24T22:09:09.851Z,101463.08
2017-08-24T22:11:38.334Z,101463.69
2017-08-24T22:14:06.813Z,101466.03
2017-08-24T22:16:35.288Z,101469.38
2017-08-24T22:19:03.785Z,101466.05
2017-08-24T22:21:32.257Z,101466.17
2017-08-24T22:24:00.716Z,101464.36
2017-08-24T22:26:29.152Z,101462.84
2017-08-24T22:28:57.604Z,101464.44
2017-08-24T22:31:26.067Z,101461.38
2017-08-24T22:33:54.570Z,101457.42
2017-08-24T22:36:23.050Z,101455.42
2017-08-24T22:38:51.514Z,101461.58
2017-08-24T22:41:19.940Z,101464.23
2017-08-24T22:43:48.500Z,101454.55
2017-08-24T22:46:16.944Z,101468.69
2017-08-24T22:48:45.683Z,101461.86
2017-08-24T22:51:14.207Z,101466.57
2017-08-24T22:53:48.113Z,101476.14
2017-08-24T22:59:27.054Z,101478.66
2017-08-24T23:02:01.132Z,101480.45
2017-08-24T23:04:29.605Z,101474.69
2017-08-24T23:06:58.072Z,101477.97
2017-08-24T23:09:26.559Z,101474.81
2017-08-24T23:11:55.013Z,101478.13
2017-08-24T23:14:23.528Z,101485.87
2017-08-24T23:16:51.989Z,101482.34
2017-08-24T23:19:20.474Z,101484.63
2017-08-24T23:21:48.925Z,101474.77
2017-08-24T23:24:17.452Z,101483.94
2017-08-24T23:26:45.900Z,101476.42
2017-08-24T23:29:14.423Z,101473.91
2017-08-24T23:31:42.892Z,101474.64
2017-08-24T23:34:11.371Z,101479.45
2017-08-24T23:36:39.859Z,101476.55
2017-08-24T23:39:08.296Z,101470.91
2017-08-24T23:41:36.743Z,101475.27
2017-08-24T23:44:05.191Z,101482.69
2017-08-24T23:46:33.636Z,101480.55
2017-08-24T23:49:02.159Z,101476.23
2017-08-24T23:51:30.613Z,101486.28
2017-08-24T23:53:59.143Z,101477.59
2017-08-24T23:56:27.604Z,101482.39
2017-08-24T23:58:56.024Z,101484.14
